Ashippun, Wisconsin
Current Conditions -  °F | °C
As of 11:15 PM on Monday 20 Oct 2014 (Local Time) from KRYV Reporting Station
Overcast Overcast  
Wind Chill: 46°   Ceiling: 4800
Heat Index: 49°   Visibility: 10mi
Dew Point: 42°   Wind: 7mph
Humidity: 76%   Direction: 360°N
Pressure: 30.02"   Gusts: NA
Location:  43.21°N, 88.52°W
Report Text: KRYV 210415Z AUTO 36006KT 10SM OVC048 10/06 A3002 RMK AO2 T00960056
Loading
Personal Weather Stations






























Interactive Weather Map
Tropical Storm Tracking
New forecast layout! Learn more

10-Day Weather Forecast

Advertisements
Track Severe Weather on mobile